createdAt,value
2019-04-16T00:01:02.631Z,38.05
2019-04-16T00:03:32.435Z,38.07
2019-04-16T00:06:09.587Z,37.85
2019-04-16T00:08:48.483Z,38.72
2019-04-16T00:11:37.075Z,38.38
2019-04-16T00:14:17.097Z,38.38
2019-04-16T00:16:46.501Z,38.83
2019-04-16T00:19:15.865Z,38.98
2019-04-16T00:21:58.642Z,38.98
2019-04-16T00:24:30.981Z,39.07
2019-04-16T00:27:00.540Z,38.94
2019-04-16T00:29:32.672Z,38.94
2019-04-16T00:32:09.984Z,39.36
2019-04-16T00:34:39.448Z,39.36
2019-04-16T00:37:08.819Z,39.41
2019-04-16T00:39:38.214Z,40.12
2019-04-16T00:42:07.592Z,40.12
2019-04-16T00:44:36.988Z,39.45
2019-04-16T00:47:06.404Z,39.45
2019-04-16T00:49:37.909Z,39.87
2019-04-16T00:52:07.418Z,41.24
2019-04-16T00:54:39.306Z,41.24
2019-04-16T00:57:07.972Z,40.90
2019-04-16T00:59:37.368Z,40.29
2019-04-16T01:02:06.765Z,40.29
2019-04-16T01:04:36.137Z,40.74
2019-04-16T01:07:05.532Z,41.16
2019-04-16T01:09:34.944Z,41.17
2019-04-16T01:12:04.318Z,41.17
2019-04-16T01:14:33.703Z,41.74
2019-04-16T01:17:05.095Z,42.41
2019-04-16T01:19:34.293Z,41.85
2019-04-16T01:22:03.653Z,41.84
2019-04-16T01:24:33.093Z,41.84
2019-04-16T01:27:02.455Z,41.85
2019-04-16T01:29:33.838Z,41.85
2019-04-16T01:32:20.967Z,42.02
2019-04-16T01:35:12.350Z,41.88
2019-04-16T01:37:59.541Z,41.55
2019-04-16T01:40:41.227Z,41.75
2019-04-16T01:43:10.603Z,41.93
2019-04-16T01:45:40.187Z,41.93
2019-04-16T01:48:09.553Z,42.33
2019-04-16T01:50:43.493Z,42.40
2019-04-16T01:53:10.029Z,42.27
2019-04-16T01:55:42.284Z,42.80
2019-04-16T01:58:10.511Z,42.98
2019-04-16T02:00:40.066Z,43.17
2019-04-16T02:03:09.654Z,42.89
2019-04-16T02:05:39.025Z,43.00
2019-04-16T02:08:08.446Z,42.83
2019-04-16T02:10:38.443Z,43.23
2019-04-16T02:13:08.470Z,43.72
2019-04-16T02:15:37.978Z,43.77
2019-04-16T02:18:07.330Z,43.63
2019-04-16T02:20:39.297Z,44.04
2019-04-16T02:23:07.813Z,44.14
2019-04-16T02:25:37.227Z,44.36
2019-04-16T02:28:06.586Z,45.03
2019-04-16T02:30:39.103Z,44.07
2019-04-16T02:33:07.057Z,44.24
2019-04-16T02:35:36.444Z,44.39
2019-04-16T02:38:10.375Z,44.53
2019-04-16T02:40:36.961Z,44.67
2019-04-16T02:43:07.670Z,44.21
2019-04-16T02:45:37.594Z,45.07
2019-04-16T02:48:07.266Z,44.57
2019-04-16T02:50:45.993Z,44.64
2019-04-16T02:53:37.389Z,44.96
2019-04-16T02:56:24.501Z,45.35
2019-04-16T02:58:58.591Z,45.52
2019-04-16T03:01:39.085Z,45.98
2019-04-16T03:04:12.295Z,45.82
2019-04-16T03:06:41.788Z,46.50
2019-04-16T03:09:11.201Z,46.52
2019-04-16T03:11:40.588Z,46.58
2019-04-16T03:14:09.994Z,46.55
2019-04-16T03:16:47.204Z,46.60
2019-04-16T03:19:21.067Z,46.60
2019-04-16T03:21:50.425Z,46.63
2019-04-16T03:24:19.924Z,46.89
2019-04-16T03:26:50.531Z,47.18
2019-04-16T03:29:20.419Z,47.56
2019-04-16T03:31:57.684Z,47.76
2019-04-16T03:34:22.090Z,47.74
2019-04-16T03:36:52.217Z,47.65
2019-04-16T03:39:21.608Z,47.31
2019-04-16T03:41:55.953Z,47.66
2019-04-16T03:44:22.188Z,47.78
2019-04-16T03:46:51.562Z,47.78
2019-04-16T03:49:20.947Z,48.22
2019-04-16T03:51:50.306Z,48.39
2019-04-16T03:54:22.410Z,48.31
2019-04-16T03:56:50.844Z,48.63
2019-04-16T03:59:20.722Z,49.84
2019-04-16T04:01:50.090Z,49.13
2019-04-16T04:04:19.465Z,49.12
2019-04-16T04:06:48.889Z,49.48
2019-04-16T04:09:22.170Z,48.68
2019-04-16T04:11:49.863Z,49.06
2019-04-16T04:14:23.331Z,48.63
2019-04-16T04:16:50.468Z,48.81
2019-04-16T04:19:19.849Z,49.32
2019-04-16T04:21:50.619Z,49.05
2019-04-16T04:24:20.622Z,48.61
2019-04-16T04:26:50.010Z,48.99
2019-04-16T04:29:20.698Z,49.59
2019-04-16T04:31:50.490Z,49.28
2019-04-16T04:34:19.981Z,49.61
2019-04-16T04:36:49.368Z,50.30
2019-04-16T04:39:18.754Z,49.97
2019-04-16T04:41:48.121Z,51.22
2019-04-16T04:44:17.509Z,51.33
2019-04-16T04:46:47.136Z,51.16
2019-04-16T04:49:16.550Z,51.44
2019-04-16T04:51:45.921Z,52.50
2019-04-16T04:54:15.467Z,52.37
2019-04-16T04:56:44.825Z,51.92
2019-04-16T04:59:14.211Z,51.86
2019-04-16T05:01:43.825Z,52.14
2019-04-16T05:04:44.220Z,52.37
2019-04-16T05:07:13.846Z,52.30
2019-04-16T05:09:43.299Z,51.92
2019-04-16T05:12:12.784Z,51.55
2019-04-16T05:14:57.376Z,51.02
2019-04-16T05:17:26.284Z,50.49
2019-04-16T05:19:55.703Z,50.61
2019-04-16T05:22:25.133Z,50.06
2019-04-16T05:24:54.521Z,49.93
2019-04-16T05:27:23.901Z,49.39
2019-04-16T05:29:53.367Z,49.45
2019-04-16T05:32:25.642Z,49.71
2019-04-16T05:34:53.932Z,49.61
2019-04-16T05:37:23.322Z,50.22
2019-04-16T05:39:52.758Z,49.74
2019-04-16T05:42:25.247Z,49.18
2019-04-16T05:44:54.039Z,48.85
2019-04-16T05:47:23.485Z,48.85
2019-04-16T05:49:54.447Z,49.20
2019-04-16T05:52:24.048Z,49.12
2019-04-16T05:55:02.348Z,48.70
2019-04-16T05:57:34.076Z,48.87
2019-04-16T06:00:09.346Z,48.92
2019-04-16T06:02:43.256Z,48.05
2019-04-16T06:05:13.463Z,47.76
2019-04-16T06:07:42.911Z,47.04
2019-04-16T06:10:17.044Z,46.77
2019-04-16T06:13:09.402Z,46.87
2019-04-16T06:15:56.406Z,47.18
2019-04-16T06:18:47.880Z,47.34
2019-04-16T06:21:35.393Z,47.26
2019-04-16T06:24:15.737Z,46.64
2019-04-16T06:27:02.792Z,46.59
2019-04-16T06:29:49.871Z,45.85
2019-04-16T06:32:34.080Z,45.27
2019-04-16T06:35:21.409Z,44.39
2019-04-16T06:37:58.390Z,44.39
2019-04-16T06:41:03.143Z,43.57
2019-04-16T06:43:32.725Z,43.57
2019-04-16T06:46:17.469Z,43.38
2019-04-16T06:49:04.782Z,43.69
2019-04-16T06:51:59.574Z,44.00
2019-04-16T06:54:49.404Z,43.15
2019-04-16T06:57:29.382Z,42.32
2019-04-16T07:00:26.632Z,42.55
2019-04-16T07:03:14.977Z,41.83
2019-04-16T07:06:03.892Z,41.82
2019-04-16T07:08:53.170Z,41.82
2019-04-16T07:11:23.204Z,40.91
2019-04-16T07:13:52.584Z,40.42
2019-04-16T07:16:22.003Z,40.45
2019-04-16T07:18:51.452Z,39.11
2019-04-16T07:21:20.850Z,38.40
2019-04-16T07:23:50.345Z,38.09
2019-04-16T07:26:19.943Z,37.88
2019-04-16T07:28:58.971Z,37.70
2019-04-16T07:31:35.122Z,37.87
2019-04-16T07:34:22.483Z,37.18
2019-04-16T07:37:17.062Z,37.42
2019-04-16T07:40:08.669Z,37.97
2019-04-16T07:42:58.036Z,36.92
2019-04-16T07:45:36.172Z,36.74
2019-04-16T07:48:28.065Z,36.46
2019-04-16T07:51:08.022Z,36.35
2019-04-16T07:54:03.191Z,36.01
2019-04-16T07:56:33.167Z,36.37
2019-04-16T07:59:02.699Z,35.80
2019-04-16T08:01:32.235Z,36.41
2019-04-16T08:04:03.055Z,35.74
2019-04-16T08:06:32.810Z,35.31
2019-04-16T08:09:02.345Z,35.02
2019-04-16T08:11:31.716Z,36.01
2019-04-16T08:14:14.699Z,34.85
2019-04-16T08:16:47.584Z,36.36
2019-04-16T08:19:17.075Z,34.51
2019-04-16T08:21:47.375Z,35.45
2019-04-16T08:24:24.802Z,34.72
2019-04-16T08:26:53.276Z,34.78
2019-04-16T08:29:26.315Z,34.23
2019-04-16T08:31:55.765Z,34.63
2019-04-16T08:34:25.885Z,34.31
2019-04-16T08:36:56.038Z,34.79
2019-04-16T08:39:26.126Z,32.99
2019-04-16T08:41:56.241Z,32.59
2019-04-16T08:44:26.142Z,33.14
2019-04-16T08:46:58.590Z,32.75
2019-04-16T08:49:28.350Z,32.74
2019-04-16T08:51:58.511Z,31.92
2019-04-16T08:54:28.950Z,32.38
2019-04-16T08:56:58.841Z,32.11
2019-04-16T08:59:29.089Z,32.43
2019-04-16T09:01:59.134Z,32.47
2019-04-16T09:04:34.261Z,31.28
2019-04-16T09:07:11.443Z,31.45
2019-04-16T09:09:56.977Z,31.32
2019-04-16T09:12:25.895Z,30.61
2019-04-16T09:14:56.631Z,30.76
2019-04-16T09:17:33.511Z,30.22
2019-04-16T09:20:25.526Z,30.18
2019-04-16T09:22:58.315Z,29.98
2019-04-16T09:25:49.545Z,30.59
2019-04-16T09:28:31.171Z,30.84
2019-04-16T09:31:23.981Z,32.08
2019-04-16T09:34:12.952Z,31.39
2019-04-16T09:37:11.111Z,31.54
2019-04-16T09:39:54.539Z,31.02
2019-04-16T09:42:25.186Z,29.78
2019-04-16T09:44:55.567Z,30.25
2019-04-16T09:47:28.962Z,29.92
2019-04-16T09:49:57.650Z,29.61
2019-04-16T09:52:27.020Z,29.46
2019-04-16T09:54:56.394Z,29.63
2019-04-16T09:57:31.118Z,28.67
2019-04-16T10:00:00.642Z,28.74
2019-04-16T10:02:33.660Z,28.85
2019-04-16T10:05:04.139Z,28.53
2019-04-16T10:07:39.972Z,28.20
2019-04-16T10:10:06.856Z,28.49
2019-04-16T10:12:36.936Z,28.61
2019-04-16T10:15:08.138Z,28.30
2019-04-16T10:17:38.495Z,29.08
2019-04-16T10:20:08.887Z,29.42
2019-04-16T10:22:39.145Z,28.60
2019-04-16T10:25:16.096Z,28.22
2019-04-16T10:27:49.199Z,28.70
2019-04-16T10:30:23.001Z,28.56
2019-04-16T10:32:53.276Z,28.12
2019-04-16T10:35:23.609Z,28.14
2019-04-16T10:37:53.748Z,27.81
2019-04-16T10:40:48.946Z,28.39
2019-04-16T10:43:44.352Z,27.50
2019-04-16T10:46:39.905Z,27.48
2019-04-16T10:49:18.405Z,28.07
2019-04-16T10:52:07.466Z,27.52
2019-04-16T10:54:46.549Z,27.33
2019-04-16T10:57:41.303Z,28.29
2019-04-16T11:00:30.141Z,27.65
2019-04-16T11:03:21.989Z,27.08
2019-04-16T11:05:57.050Z,26.43
2019-04-16T11:08:28.055Z,26.81
2019-04-16T11:10:57.776Z,28.22
2019-04-16T11:13:31.613Z,27.76
2019-04-16T11:16:07.088Z,27.14
2019-04-16T11:18:37.146Z,26.80
2019-04-16T11:21:08.103Z,26.69
2019-04-16T11:23:38.620Z,27.13
2019-04-16T11:26:09.497Z,26.72
2019-04-16T11:28:39.610Z,26.79
2019-04-16T11:31:15.149Z,26.28
2019-04-16T11:33:44.606Z,25.81
2019-04-16T11:36:19.880Z,26.24
2019-04-16T11:38:45.153Z,26.50
2019-04-16T11:41:15.036Z,26.08
2019-04-16T11:43:44.699Z,25.66
2019-04-16T11:46:14.093Z,25.34
2019-04-16T11:48:43.515Z,25.18
2019-04-16T11:51:12.872Z,24.93
2019-04-16T11:53:42.242Z,25.51
2019-04-16T11:56:11.685Z,24.56
2019-04-16T11:58:47.290Z,23.47
2019-04-16T12:01:39.574Z,22.77
2019-04-16T12:04:30.923Z,23.33
2019-04-16T12:07:29.506Z,22.51
2019-04-16T12:10:21.542Z,22.86
2019-04-16T12:12:53.777Z,22.06
2019-04-16T12:15:40.727Z,21.61
2019-04-16T12:18:21.614Z,20.00
2019-04-16T12:21:05.566Z,20.77
2019-04-16T12:23:47.097Z,20.53
2019-04-16T12:26:47.991Z,20.40
2019-04-16T12:29:43.473Z,19.34
2019-04-16T12:32:32.461Z,19.09
2019-04-16T12:35:31.071Z,19.14
2019-04-16T12:38:24.425Z,18.41
2019-04-16T12:41:12.745Z,18.09
2019-04-16T12:43:56.406Z,17.96
2019-04-16T12:46:34.272Z,18.01
2019-04-16T12:49:22.207Z,18.07
2019-04-16T12:51:55.712Z,17.36
2019-04-16T12:54:58.291Z,17.53
2019-04-16T12:57:38.910Z,17.43
2019-04-16T13:00:16.957Z,16.83
2019-04-16T13:03:04.591Z,16.27
2019-04-16T13:05:54.506Z,16.51
2019-04-16T13:08:31.259Z,15.92
2019-04-16T13:11:25.953Z,16.14
2019-04-16T13:14:24.128Z,16.35
2019-04-16T13:17:18.892Z,15.88
2019-04-16T13:20:03.186Z,15.48
2019-04-16T13:22:38.826Z,16.25
2019-04-16T13:25:21.723Z,15.69
2019-04-16T13:27:52.468Z,16.44
2019-04-16T13:30:22.491Z,15.38
2019-04-16T13:32:52.800Z,15.21
2019-04-16T13:35:22.197Z,15.40
2019-04-16T13:37:51.561Z,15.29
2019-04-16T13:40:21.370Z,14.79
2019-04-16T13:42:50.745Z,14.83
2019-04-16T13:45:35.819Z,14.61
2019-04-16T13:48:16.395Z,13.98
2019-04-16T13:50:43.333Z,13.85
2019-04-16T13:53:31.176Z,15.07
2019-04-16T13:56:26.589Z,14.72
2019-04-16T13:59:05.768Z,14.52
2019-04-16T14:01:45.241Z,15.54
2019-04-16T14:04:11.946Z,15.34
2019-04-16T14:06:41.330Z,15.68
2019-04-16T14:09:10.877Z,15.90
2019-04-16T14:11:40.348Z,16.03
2019-04-16T14:14:10.272Z,17.79
2019-04-16T14:16:40.848Z,17.87
2019-04-16T14:19:10.840Z,18.75
2019-04-16T14:21:40.211Z,19.25
2019-04-16T14:24:11.941Z,19.77
2019-04-16T14:26:40.968Z,21.12
2019-04-16T14:29:10.396Z,20.51
2019-04-16T14:31:39.774Z,21.08
2019-04-16T14:34:29.816Z,20.35
2019-04-16T14:36:59.463Z,20.82
2019-04-16T14:39:33.414Z,21.62
2019-04-16T14:42:02.863Z,21.14
2019-04-16T14:44:37.041Z,21.56
2019-04-16T14:47:06.427Z,21.66
2019-04-16T14:49:35.923Z,21.76
2019-04-16T14:52:05.544Z,22.28
2019-04-16T14:54:49.383Z,21.81
2019-04-16T14:57:19.267Z,22.38
2019-04-16T14:59:56.195Z,22.59
2019-04-16T15:02:33.601Z,20.91
2019-04-16T15:05:18.887Z,21.65
2019-04-16T15:08:07.206Z,21.42
2019-04-16T15:10:55.525Z,21.34
2019-04-16T15:13:43.847Z,21.54
2019-04-16T15:16:44.612Z,22.68
2019-04-16T15:19:32.940Z,22.84
2019-04-16T15:22:25.173Z,22.69
2019-04-16T15:25:19.354Z,23.38
2019-04-16T15:27:57.883Z,23.29
2019-04-16T15:30:45.311Z,22.70
2019-04-16T15:33:28.109Z,22.19
2019-04-16T15:36:04.049Z,22.91
2019-04-16T15:38:54.859Z,22.12
2019-04-16T15:41:33.455Z,22.47
2019-04-16T15:44:23.686Z,22.83
2019-04-16T15:47:14.873Z,24.31
2019-04-16T15:50:03.445Z,23.15
2019-04-16T15:52:57.855Z,23.31
2019-04-16T15:55:46.486Z,23.97
2019-04-16T15:58:23.888Z,23.63
2019-04-16T16:01:21.175Z,23.95
2019-04-16T16:04:22.373Z,24.07
2019-04-16T16:06:53.813Z,24.36
2019-04-16T16:09:42.222Z,23.99
2019-04-16T16:12:13.716Z,23.45
2019-04-16T16:14:43.134Z,23.11
2019-04-16T16:17:12.526Z,23.36
2019-04-16T16:19:42.088Z,24.37
2019-04-16T16:22:12.199Z,23.34
2019-04-16T16:24:42.975Z,24.67
2019-04-16T16:27:12.486Z,23.86
2019-04-16T16:29:41.968Z,24.05
2019-04-16T16:32:11.354Z,23.65
2019-04-16T16:34:40.831Z,24.18
2019-04-16T16:37:10.231Z,24.89
2019-04-16T16:39:39.603Z,24.58
2019-04-16T16:42:09.076Z,24.02
2019-04-16T16:44:38.460Z,24.20
2019-04-16T16:47:30.345Z,24.34
2019-04-16T16:49:59.960Z,24.80
2019-04-16T16:52:51.333Z,23.87
2019-04-16T16:55:32.172Z,24.15
2019-04-16T16:58:09.787Z,24.31
2019-04-16T17:00:47.759Z,24.63
2019-04-16T17:03:28.795Z,24.39
2019-04-16T17:05:58.562Z,25.24
2019-04-16T17:08:30.166Z,25.00
2019-04-16T17:11:14.067Z,24.78
2019-04-16T17:13:30.323Z,24.72
2019-04-16T17:15:59.717Z,25.67
2019-04-16T17:18:29.080Z,25.39
2019-04-16T17:20:58.497Z,25.36
2019-04-16T17:23:27.975Z,25.49
2019-04-16T17:25:58.641Z,26.17
2019-04-16T17:28:28.235Z,26.35
2019-04-16T17:30:58.017Z,26.93
2019-04-16T17:33:27.473Z,27.12
2019-04-16T17:35:56.957Z,27.29
2019-04-16T17:38:26.438Z,28.45
2019-04-16T17:41:00.634Z,28.36
2019-04-16T17:44:03.423Z,28.17
2019-04-16T17:47:06.343Z,28.60
2019-04-16T17:49:54.793Z,28.81
2019-04-16T17:52:27.316Z,29.88
2019-04-16T17:55:05.693Z,29.03
2019-04-16T17:57:54.056Z,29.40
2019-04-16T18:00:42.362Z,29.56
2019-04-16T18:03:37.673Z,29.72
2019-04-16T18:06:38.988Z,30.17
2019-04-16T18:09:25.409Z,30.33
2019-04-16T18:12:19.597Z,30.53
2019-04-16T18:14:58.844Z,30.60
2019-04-16T18:17:56.123Z,30.93
2019-04-16T18:20:35.666Z,31.60
2019-04-16T18:23:36.163Z,31.26
2019-04-16T18:26:37.188Z,31.54
2019-04-16T18:29:17.536Z,31.47
2019-04-16T18:31:52.425Z,31.85
2019-04-16T18:34:36.624Z,31.94
2019-04-16T18:37:28.201Z,32.14
2019-04-16T18:40:06.303Z,32.05
2019-04-16T18:43:06.902Z,32.06
2019-04-16T18:45:55.812Z,32.28
2019-04-16T18:48:27.554Z,31.90
2019-04-16T18:50:59.883Z,31.77
2019-04-16T18:53:28.080Z,31.97
2019-04-16T18:55:57.459Z,31.97
2019-04-16T18:58:26.832Z,32.29
2019-04-16T19:01:02.113Z,32.44
2019-04-16T19:03:31.491Z,32.42
2019-04-16T19:06:00.986Z,32.28
2019-04-16T19:08:41.597Z,32.49
2019-04-16T19:11:01.562Z,32.64
2019-04-16T19:13:30.990Z,32.72
2019-04-16T19:16:00.670Z,32.36
2019-04-16T19:18:30.053Z,32.57
2019-04-16T19:20:59.511Z,32.74
2019-04-16T19:23:28.991Z,32.85
2019-04-16T19:25:58.384Z,34.06
2019-04-16T19:28:27.803Z,32.93
2019-04-16T19:30:57.202Z,32.75
2019-04-16T19:33:26.667Z,32.91
2019-04-16T19:35:56.077Z,32.90
2019-04-16T19:38:25.464Z,33.17
2019-04-16T19:40:55.023Z,33.09
2019-04-16T19:43:27.964Z,33.08
2019-04-16T19:45:55.662Z,33.39
2019-04-16T19:48:35.387Z,33.31
2019-04-16T19:50:56.239Z,33.42
2019-04-16T19:53:25.619Z,33.56
2019-04-16T19:55:55.023Z,33.71
2019-04-16T19:58:24.384Z,33.74
2019-04-16T20:00:57.090Z,33.77
2019-04-16T20:03:30.170Z,33.65
2019-04-16T20:05:56.381Z,33.83
2019-04-16T20:08:25.884Z,34.06
2019-04-16T20:10:55.363Z,34.18
2019-04-16T20:13:24.771Z,34.01
2019-04-16T20:15:54.282Z,34.17
2019-04-16T20:18:29.218Z,34.45
2019-04-16T20:21:01.230Z,34.63
2019-04-16T20:23:30.743Z,34.74
2019-04-16T20:26:01.035Z,34.74
2019-04-16T20:28:30.630Z,34.95
2019-04-16T20:31:03.512Z,35.09
2019-04-16T20:33:31.356Z,35.32
2019-04-16T20:36:00.758Z,35.20
2019-04-16T20:38:30.221Z,35.07
2019-04-16T20:40:59.672Z,35.12
2019-04-16T20:43:29.036Z,35.16
2019-04-16T20:45:58.593Z,35.35
2019-04-16T20:48:27.992Z,35.57
2019-04-16T20:50:59.500Z,35.63
2019-04-16T20:53:28.575Z,35.61
2019-04-16T20:55:58.147Z,35.74
2019-04-16T20:58:31.065Z,35.67
2019-04-16T21:00:59.655Z,35.61
2019-04-16T21:03:30.993Z,35.65
2019-04-16T21:06:00.278Z,35.77
2019-04-16T21:08:29.777Z,35.98
2019-04-16T21:11:00.033Z,35.88
2019-04-16T21:13:29.608Z,35.94
2019-04-16T21:16:01.695Z,35.97
2019-04-16T21:18:30.154Z,35.81
2019-04-16T21:20:59.542Z,35.72
2019-04-16T21:23:31.946Z,35.71
2019-04-16T21:26:00.066Z,35.76
2019-04-16T21:28:48.374Z,36.10
2019-04-16T21:31:23.323Z,35.99
2019-04-16T21:34:11.668Z,35.76
2019-04-16T21:37:03.067Z,35.97
2019-04-16T21:39:37.341Z,35.91
2019-04-16T21:42:06.776Z,35.89
2019-04-16T21:44:36.155Z,36.12
2019-04-16T21:47:05.774Z,36.06
2019-04-16T21:49:38.792Z,35.90
2019-04-16T21:52:09.328Z,35.94
2019-04-16T21:54:39.195Z,35.99
2019-04-16T21:57:09.845Z,36.11
2019-04-16T21:59:39.702Z,35.70
2019-04-16T22:02:20.450Z,35.81
2019-04-16T22:04:49.844Z,35.77
2019-04-16T22:07:24.208Z,35.91
2019-04-16T22:09:50.628Z,35.83
2019-04-16T22:12:20.147Z,35.83
2019-04-16T22:14:50.962Z,35.77
2019-04-16T22:17:20.674Z,35.66
2019-04-16T22:19:54.299Z,35.95
2019-04-16T22:22:21.159Z,35.90
2019-04-16T22:24:51.851Z,35.84
2019-04-16T22:27:21.672Z,35.98
2019-04-16T22:29:51.057Z,35.96
2019-04-16T22:32:20.442Z,35.84
2019-04-16T22:34:49.829Z,35.96
2019-04-16T22:37:19.248Z,35.90
2019-04-16T22:40:07.568Z,35.98
2019-04-16T22:42:49.676Z,35.76
2019-04-16T22:45:40.732Z,35.91
2019-04-16T22:48:10.140Z,35.57
2019-04-16T22:50:39.516Z,35.50
2019-04-16T22:53:08.896Z,35.57
2019-04-16T22:55:42.376Z,35.67
2019-04-16T22:58:23.364Z,36.33
2019-04-16T23:00:55.010Z,35.88
2019-04-16T23:03:24.405Z,36.28
2019-04-16T23:05:53.851Z,35.93
2019-04-16T23:08:23.224Z,36.14
2019-04-16T23:10:52.651Z,36.01
2019-04-16T23:13:22.014Z,36.21
2019-04-16T23:15:51.372Z,36.10
2019-04-16T23:18:20.991Z,36.74
2019-04-16T23:20:50.353Z,36.53
2019-04-16T23:23:19.772Z,36.19
2019-04-16T23:25:49.195Z,36.25
2019-04-16T23:28:18.595Z,36.07
2019-04-16T23:30:51.207Z,36.36
2019-04-16T23:33:19.110Z,36.21
2019-04-16T23:35:48.486Z,36.41
2019-04-16T23:38:17.965Z,36.25
2019-04-16T23:40:47.349Z,36.44
2019-04-16T23:43:36.251Z,37.03
2019-04-16T23:46:23.623Z,36.71
2019-04-16T23:49:02.290Z,36.86
2019-04-16T23:51:38.881Z,36.94
2019-04-16T23:54:14.357Z,37.16
2019-04-16T23:56:49.793Z,36.99
2019-04-16T23:59:26.361Z,37.14
